Time;durP1;ratioP1;P1;durP2;ratioP2;P2;SDS_P1;SDS_P2;PMS_P1;PMS_P2;Temp;Humidity;BMP_temperature;BMP_pressure;BME280_temperature;BME280_humidity;BME280_pressure;Samples;Min_cycle;Max_cycle;Signal;HPM_P1;HPM_P2
2021/06/19 00:02:07;;;;;;;;;;;;;;;;;;5031968;28;19929;-71
2021/06/19 00:04:33;;;;;;;;;;;;;;;;;;5048605;28;19996;-71
2021/06/19 00:07:00;;;;;;;;;;;;;;;;;;5035320;28;19917;-71
2021/06/19 00:09:26;;;;;;;;;;;;;;;;;;5039066;28;20691;-71
2021/06/19 00:11:52;;;;;;;;;;;;;;;;;;5032923;28;19937;-71
2021/06/19 00:14:18;;;;;;;;;;;;;;;;;;5030966;28;20143;-71
2021/06/19 00:16:44;;;;;;;;;;;;;;;;;;5044672;28;19951;-71
2021/06/19 00:19:10;;;;;;;;;;;;;;;;;;5040889;28;19943;-71
2021/06/19 00:21:36;;;;;;;;;;;;;;;;;;5032870;28;20388;-71
2021/06/19 00:24:02;;;;;;;;;;;;;;;;;;5024206;28;19921;-71
2021/06/19 00:26:28;;;;;;;;;;;;;;;;;;5026229;28;19925;-71
2021/06/19 00:28:54;;;;;;;;;;;;;;;;;;5033962;28;20004;-71
2021/06/19 00:31:21;;;;;;;;;;;;;;;;;;5046811;28;19921;-71
2021/06/19 00:33:47;;;;;;;;;;;;;;;;;;5047354;28;19928;-72
2021/06/19 00:36:13;;;;;;;;;;;;;;;;;;5042915;28;19925;-72
2021/06/19 00:38:39;;;;;;;;;;;;;;;;;;5047779;28;19982;-72
2021/06/19 00:41:05;;;;;;;;;;;;;;;;;;5034467;28;19921;-71
2021/06/19 00:43:32;;;;;;;;;;;;;;;;;;5044875;28;19925;-71
2021/06/19 00:45:59;;;;;;;;;;;;;;;;;;5045353;28;19967;-71
2021/06/19 00:48:26;;;;;;;;;;;;;;;;;;5037416;28;20261;-71
2021/06/19 00:50:52;;;;;;;;;;;;;;;;;;5036251;28;19928;-71
2021/06/19 00:53:18;;;;;;;;;;;;;;;;;;5038210;28;19936;-71
2021/06/19 00:55:44;;;;;;;;;;;;;;;;;;5026040;28;19921;-71
2021/06/19 00:58:10;;;;;;;;;;;;;;;;;;5042615;28;19928;-71
2021/06/19 01:00:36;;;;;;;;;;;;;;;;;;5043271;28;19986;-71
2021/06/19 01:03:02;;;;;;;;;;;;;;;;;;5026940;28;19972;-71
2021/06/19 01:05:28;;;;;;;;;;;;;;;;;;5044596;28;20360;-71
2021/06/19 01:07:54;;;;;;;;;;;;;;;;;;5040759;28;20563;-72
2021/06/19 01:10:20;;;;;;;;;;;;;;;;;;5042066;28;20007;-71
2021/06/19 01:12:47;;;;;;;;;;;;;;;;;;5040137;28;19921;-71
2021/06/19 01:15:13;;;;;;;;;;;;;;;;;;5043397;28;19925;-71
2021/06/19 01:17:39;;;;;;;;;;;;;;;;;;5034581;28;20035;-71
2021/06/19 01:20:05;;;;;;;;;;;;;;;;;;5027861;28;20314;-71
2021/06/19 01:22:31;;;;;;;;;;;;;;;;;;5023971;28;19929;-71
2021/06/19 01:24:57;;;;;;;;;;;;;;;;;;5053248;28;19929;-71
2021/06/19 01:27:23;;;;;;;;;;;;;;;;;;5044452;28;19966;-71
2021/06/19 01:29:49;;;;;;;;;;;;;;;;;;5025933;28;19944;-71
2021/06/19 01:32:16;;;;;;;;;;;;;;;;;;5044678;28;19928;-71
2021/06/19 01:34:42;;;;;;;;;;;;;;;;;;5039114;28;19960;-71
2021/06/19 01:37:08;;;;;;;;;;;;;;;;;;5042135;28;19927;-71
2021/06/19 01:39:34;;;;;;;;;;;;;;;;;;5052333;28;19920;-71
2021/06/19 01:42:00;;;;;;;;;;;;;;;;;;5049106;28;19928;-71
2021/06/19 01:44:27;;;;;;;;;;;;;;;;;;5043496;28;20331;-71
2021/06/19 01:46:53;;;;;;;;;;;;;;;;;;5036054;28;20024;-71
2021/06/19 01:49:19;;;;;;;;;;;;;;;;;;5045367;28;20051;-71
2021/06/19 01:51:45;;;;;;;;;;;;;;;;;;5044031;28;19929;-71
2021/06/19 01:54:11;;;;;;;;;;;;;;;;;;5040277;28;19921;-71
2021/06/19 01:56:57;;;;;;;;;;;;;;;;;;5025727;28;19979;-71
2021/06/19 01:59:23;;;;;;;;;;;;;;;;;;5052341;28;20384;-72
2021/06/19 02:01:49;;;;;;;;;;;;;;;;;;5048098;28;19921;-71
2021/06/19 02:04:15;;;;;;;;;;;;;;;;;;5038402;28;19988;-71
2021/06/19 02:06:41;;;;;;;;;;;;;;;;;;5038487;28;19921;-71
2021/06/19 02:09:08;;;;;;;;;;;;;;;;;;5043954;28;19955;-71
2021/06/19 02:11:34;;;;;;;;;;;;;;;;;;5043190;28;20270;-71
2021/06/19 02:14:00;;;;;;;;;;;;;;;;;;5042084;28;20438;-71
2021/06/19 02:16:26;;;;;;;;;;;;;;;;;;5042137;28;19974;-72
2021/06/19 02:18:52;;;;;;;;;;;;;;;;;;5043021;28;19925;-71
2021/06/19 02:21:18;;;;;;;;;;;;;;;;;;5038993;28;20338;-71
2021/06/19 02:23:44;;;;;;;;;;;;;;;;;;5042789;28;19921;-72
2021/06/19 02:26:11;;;;;;;;;;;;;;;;;;5043021;28;20349;-71
2021/06/19 02:28:37;;;;;;;;;;;;;;;;;;5041001;28;19924;-71
2021/06/19 02:31:03;;;;;;;;;;;;;;;;;;5041109;28;19921;-71
2021/06/19 02:33:29;;;;;;;;;;;;;;;;;;5046761;28;20368;-71
2021/06/19 02:35:55;;;;;;;;;;;;;;;;;;5045955;28;19920;-71
2021/06/19 02:38:22;;;;;;;;;;;;;;;;;;5046586;28;19921;-71
2021/06/19 02:40:48;;;;;;;;;;;;;;;;;;5046172;28;19924;-71
2021/06/19 02:43:14;;;;;;;;;;;;;;;;;;5045057;28;19925;-71
2021/06/19 02:45:40;;;;;;;;;;;;;;;;;;5040480;28;19925;-72
2021/06/19 02:48:06;;;;;;;;;;;;;;;;;;5041656;28;20008;-71
2021/06/19 02:50:32;;;;;;;;;;;;;;;;;;5042042;28;19979;-71
2021/06/19 02:52:59;;;;;;;;;;;;;;;;;;5038809;28;19997;-72
2021/06/19 02:55:25;;;;;;;;;;;;;;;;;;5040324;28;19986;-71
2021/06/19 02:57:51;;;;;;;;;;;;;;;;;;5036217;28;19932;-71
2021/06/19 03:00:17;;;;;;;;;;;;;;;;;;5035685;28;19941;-71
2021/06/19 03:02:43;;;;;;;;;;;;;;;;;;5044278;28;20015;-71
2021/06/19 03:05:09;;;;;;;;;;;;;;;;;;5042565;28;19924;-72
2021/06/19 03:07:35;;;;;;;;;;;;;;;;;;5037520;28;19917;-71
2021/06/19 03:10:02;;;;;;;;;;;;;;;;;;5035466;28;19948;-71
2021/06/19 03:12:28;;;;;;;;;;;;;;;;;;5037190;28;20363;-71
2021/06/19 03:14:54;;;;;;;;;;;;;;;;;;5037550;28;19917;-71
2021/06/19 03:17:20;;;;;;;;;;;;;;;;;;5036294;28;19921;-72
2021/06/19 03:19:46;;;;;;;;;;;;;;;;;;5039287;28;19927;-71
2021/06/19 03:22:12;;;;;;;;;;;;;;;;;;5042875;28;19929;-72
2021/06/19 03:24:39;;;;;;;;;;;;;;;;;;5049716;28;19921;-71
2021/06/19 03:27:05;;;;;;;;;;;;;;;;;;5040148;28;19936;-71
2021/06/19 03:29:31;;;;;;;;;;;;;;;;;;5044271;28;19964;-71
2021/06/19 03:31:57;;;;;;;;;;;;;;;;;;5026629;28;20570;-71
2021/06/19 03:34:23;;;;;;;;;;;;;;;;;;5035770;28;19921;-71
2021/06/19 03:36:52;;;;;;;;;;;;;;;;;;5036724;28;19929;-71
2021/06/19 03:39:19;;;;;;;;;;;;;;;;;;5039148;28;20015;-72
2021/06/19 03:41:45;;;;;;;;;;;;;;;;;;5047789;28;19942;-71
2021/06/19 03:44:12;;;;;;;;;;;;;;;;;;5044148;28;19920;-72
2021/06/19 03:46:38;;;;;;;;;;;;;;;;;;5046566;28;19949;-71
2021/06/19 03:49:04;;;;;;;;;;;;;;;;;;5038259;28;19920;-71
2021/06/19 03:51:30;;;;;;;;;;;;;;;;;;5036188;28;19968;-71
2021/06/19 03:53:56;;;;;;;;;;;;;;;;;;5035869;28;19933;-71
2021/06/19 03:56:22;;;;;;;;;;;;;;;;;;5033968;28;19929;-72
2021/06/19 03:58:48;;;;;;;;;;;;;;;;;;5034996;28;20384;-71
2021/06/19 04:01:14;;;;;;;;;;;;;;;;;;5045370;28;19928;-71
2021/06/19 04:03:40;;;;;;;;;;;;;;;;;;5037859;28;19925;-71
2021/06/19 04:06:06;;;;;;;;;;;;;;;;;;5036327;28;19928;-71
2021/06/19 04:08:33;;;;;;;;;;;;;;;;;;5038565;28;19928;-71
2021/06/19 04:10:59;;;;;;;;;;;;;;;;;;5033683;28;19997;-71
2021/06/19 04:13:25;;;;;;;;;;;;;;;;;;5038842;28;19936;-71
2021/06/19 04:15:51;;;;;;;;;;;;;;;;;;5043509;28;21980;-72
2021/06/19 04:18:17;;;;;;;;;;;;;;;;;;5044455;28;20024;-72
2021/06/19 04:20:43;;;;;;;;;;;;;;;;;;5044016;28;19975;-71
2021/06/19 04:23:10;;;;;;;;;;;;;;;;;;5035905;28;19924;-71
2021/06/19 04:25:36;;;;;;;;;;;;;;;;;;5036533;28;19952;-72
2021/06/19 04:28:02;;;;;;;;;;;;;;;;;;5024983;28;20485;-71
2021/06/19 04:30:28;;;;;;;;;;;;;;;;;;5037747;28;19950;-72
2021/06/19 04:32:54;;;;;;;;;;;;;;;;;;5037710;28;19932;-71
2021/06/19 04:35:21;;;;;;;;;;;;;;;;;;5047284;28;19952;-72
2021/06/19 04:37:47;;;;;;;;;;;;;;;;;;5039167;28;19956;-72
2021/06/19 04:42:45;;;;;;;;;;;;;;;;;;5043294;28;19920;-72
2021/06/19 04:45:11;;;;;;;;;;;;;;;;;;5038934;28;19940;-71
2021/06/19 04:47:39;;;;;;;;;;;;;;;;;;5035204;28;19992;-72
2021/06/19 04:50:05;;;;;;;;;;;;;;;;;;5037418;28;20019;-72
2021/06/19 04:52:31;;;;;;;;;;;;;;;;;;5041329;28;19925;-72
2021/06/19 04:54:57;;;;;;;;;;;;;;;;;;5039315;28;19937;-72
2021/06/19 04:57:23;;;;;;;;;;;;;;;;;;5042781;28;19995;-72
2021/06/19 04:59:49;;;;;;;;;;;;;;;;;;5045449;28;19920;-72
2021/06/19 05:02:16;;;;;;;;;;;;;;;;;;5017150;28;20019;-72
2021/06/19 05:04:42;;;;;;;;;;;;;;;;;;5026146;28;20360;-72
2021/06/19 05:07:08;;;;;;;;;;;;;;;;;;5044791;28;19917;-72
2021/06/19 05:09:34;;;;;;;;;;;;;;;;;;5037657;28;19921;-72
2021/06/19 05:12:00;;;;;;;;;;;;;;;;;;5033969;28;19969;-72
2021/06/19 05:14:27;;;;;;;;;;;;;;;;;;5047045;28;20015;-71
2021/06/19 05:16:54;;;;;;;;;;;;;;;;;;5038213;28;19920;-72
2021/06/19 05:19:20;;;;;;;;;;;;;;;;;;5037036;28;19924;-72
2021/06/19 05:21:46;;;;;;;;;;;;;;;;;;5041015;28;19921;-72
2021/06/19 05:24:13;;;;;;;;;;;;;;;;;;5038767;28;19928;-72
2021/06/19 05:26:39;;;;;;;;;;;;;;;;;;5045469;28;19933;-72
2021/06/19 05:29:05;;;;;;;;;;;;;;;;;;5047449;28;19950;-71
2021/06/19 05:31:31;;;;;;;;;;;;;;;;;;5047540;28;19939;-72
2021/06/19 05:33:57;;;;;;;;;;;;;;;;;;5046837;28;19929;-72
2021/06/19 05:36:23;;;;;;;;;;;;;;;;;;5043729;28;19920;-72
2021/06/19 05:38:49;;;;;;;;;;;;;;;;;;5042105;28;19916;-72
2021/06/19 05:41:16;;;;;;;;;;;;;;;;;;5049507;28;19921;-71
2021/06/19 05:43:42;;;;;;;;;;;;;;;;;;5045020;28;19927;-72
2021/06/19 05:46:08;;;;;;;;;;;;;;;;;;5045035;28;19957;-72
2021/06/19 05:48:34;;;;;;;;;;;;;;;;;;5045585;28;20092;-72
2021/06/19 05:51:01;;;;;;;;;;;;;;;;;;5045127;28;20381;-72
2021/06/19 05:53:27;;;;;;;;;;;;;;;;;;5036280;28;20012;-72
2021/06/19 05:55:53;;;;;;;;;;;;;;;;;;5045888;28;20012;-72
2021/06/19 05:58:19;;;;;;;;;;;;;;;;;;5049380;28;20023;-72
2021/06/19 06:00:45;;;;;;;;;;;;;;;;;;5047200;28;19956;-72
2021/06/19 06:03:11;;;;;;;;;;;;;;;;;;5045277;28;19921;-72
2021/06/19 06:05:38;;;;;;;;;;;;;;;;;;5027574;28;19924;-72
2021/06/19 06:08:04;;;;;;;;;;;;;;;;;;5044499;28;19921;-72
2021/06/19 06:10:30;;;;;;;;;;;;;;;;;;5036984;28;20280;-72
2021/06/19 06:12:56;;;;;;;;;;;;;;;;;;5047530;28;19921;-72
2021/06/19 06:15:23;;;;;;;;;;;;;;;;;;5050341;28;19967;-72
2021/06/19 06:17:49;;;;;;;;;;;;;;;;;;5039741;28;19924;-71
2021/06/19 06:20:15;;;;;;;;;;;;;;;;;;5046295;28;19937;-71
2021/06/19 06:22:41;;;;;;;;;;;;;;;;;;5042037;28;20305;-71
2021/06/19 06:25:07;;;;;;;;;;;;;;;;;;5044872;28;20304;-72
2021/06/19 06:27:33;;;;;;;;;;;;;;;;;;5041536;28;19925;-72
2021/06/19 06:29:59;;;;;;;;;;;;;;;;;;5046167;28;19948;-72
2021/06/19 06:32:26;;;;;;;;;;;;;;;;;;5044396;28;19920;-71
2021/06/19 06:34:52;;;;;;;;;;;;;;;;;;5043429;28;19920;-72
2021/06/19 06:37:19;;;;;;;;;;;;;;;;;;5043045;28;19947;-72
2021/06/19 06:39:45;;;;;;;;;;;;;;;;;;5044107;28;20406;-72
2021/06/19 06:42:12;;;;;;;;;;;;;;;;;;5043066;28;20387;-72
2021/06/19 06:44:39;;;;;;;;;;;;;;;;;;5045244;28;19920;-72
2021/06/19 06:47:06;;;;;;;;;;;;;;;;;;5024053;28;19920;-71
2021/06/19 06:49:32;;;;;;;;;;;;;;;;;;5033339;28;20179;-72
2021/06/19 06:51:58;;;;;;;;;;;;;;;;;;5042161;28;19920;-72
2021/06/19 06:54:24;;;;;;;;;;;;;;;;;;5041753;28;20058;-72
2021/06/19 06:56:50;;;;;;;;;;;;;;;;;;5044241;28;19928;-71
2021/06/19 06:59:16;;;;;;;;;;;;;;;;;;5039236;28;19999;-72
2021/06/19 07:01:42;;;;;;;;;;;;;;;;;;5044386;28;20426;-72
2021/06/19 07:04:09;;;;;;;;;;;;;;;;;;5041563;28;19920;-72
2021/06/19 07:06:35;;;;;;;;;;;;;;;;;;5045931;28;19990;-72
2021/06/19 07:09:01;;;;;;;;;;;;;;;;;;5042752;28;19921;-72
2021/06/19 07:11:27;;;;;;;;;;;;;;;;;;5041073;28;19950;-71
2021/06/19 07:13:53;;;;;;;;;;;;;;;;;;5042299;28;19921;-71
2021/06/19 07:16:19;;;;;;;;;;;;;;;;;;5039236;28;20094;-72
2021/06/19 07:18:45;;;;;;;;;;;;;;;;;;5037957;28;19929;-71
2021/06/19 07:21:12;;;;;;;;;;;;;;;;;;5044711;28;19974;-72
2021/06/19 07:23:38;;;;;;;;;;;;;;;;;;5044934;28;19928;-72
2021/06/19 07:26:04;;;;;;;;;;;;;;;;;;5044298;28;20899;-72
2021/06/19 07:28:30;;;;;;;;;;;;;;;;;;5042363;28;19921;-71
2021/06/19 07:30:56;;;;;;;;;;;;;;;;;;5045807;28;19921;-71
2021/06/19 07:33:22;;;;;;;;;;;;;;;;;;5043700;28;19950;-72
2021/06/19 07:35:49;;;;;;;;;;;;;;;;;;5031918;28;19940;-72
2021/06/19 07:38:15;;;;;;;;;;;;;;;;;;5050195;28;19928;-71
2021/06/19 07:40:41;;;;;;;;;;;;;;;;;;5044639;28;19929;-72
2021/06/19 07:43:07;;;;;;;;;;;;;;;;;;5037258;28;19967;-72
2021/06/19 07:45:34;;;;;;;;;;;;;;;;;;5038089;28;20432;-71
2021/06/19 07:48:00;;;;;;;;;;;;;;;;;;5046619;28;19921;-72
2021/06/19 07:50:26;;;;;;;;;;;;;;;;;;5048753;28;19966;-71
2021/06/19 07:52:52;;;;;;;;;;;;;;;;;;5051010;28;19963;-71
2021/06/19 07:55:19;;;;;;;;;;;;;;;;;;5050788;28;20015;-71
2021/06/19 07:57:45;;;;;;;;;;;;;;;;;;5049198;28;19924;-71
2021/06/19 08:00:11;;;;;;;;;;;;;;;;;;5046128;28;19925;-72
2021/06/19 08:02:38;;;;;;;;;;;;;;;;;;5049676;28;19958;-71
2021/06/19 08:05:04;;;;;;;;;;;;;;;;;;5045531;28;19968;-72
2021/06/19 08:07:30;;;;;;;;;;;;;;;;;;5040497;28;19921;-72
2021/06/19 08:09:57;;;;;;;;;;;;;;;;;;5045580;28;21891;-72
2021/06/19 08:12:23;;;;;;;;;;;;;;;;;;5042524;28;19921;-73
2021/06/19 08:14:49;;;;;;;;;;;;;;;;;;5041984;28;19928;-73
2021/06/19 08:17:17;;;;;;;;;;;;;;;;;;5038460;28;19921;-73
2021/06/19 08:19:44;;;;;;;;;;;;;;;;;;5042790;28;19972;-73
2021/06/19 08:22:10;;;;;;;;;;;;;;;;;;5040554;28;19933;-73
2021/06/19 08:24:37;;;;;;;;;;;;;;;;;;5038215;28;20084;-73
2021/06/19 08:27:03;;;;;;;;;;;;;;;;;;5043693;28;19925;-73
2021/06/19 08:29:29;;;;;;;;;;;;;;;;;;5040085;28;20386;-73
2021/06/19 08:31:55;;;;;;;;;;;;;;;;;;5038214;28;19952;-74
2021/06/19 08:34:21;;;;;;;;;;;;;;;;;;5023851;28;20334;-73
2021/06/19 08:36:47;;;;;;;;;;;;;;;;;;5017149;28;20023;-73
2021/06/19 08:39:14;;;;;;;;;;;;;;;;;;5037554;28;19921;-74
2021/06/19 08:41:42;;;;;;;;;;;;;;;;;;5043163;28;19944;-73
2021/06/19 08:44:09;;;;;;;;;;;;;;;;;;5028722;28;19931;-74
2021/06/19 08:46:35;;;;;;;;;;;;;;;;;;5043488;28;19963;-74
2021/06/19 08:49:02;;;;;;;;;;;;;;;;;;5043307;28;20280;-73
2021/06/19 08:51:28;;;;;;;;;;;;;;;;;;5043098;28;20001;-73
2021/06/19 08:53:54;;;;;;;;;;;;;;;;;;5036101;28;20000;-73
2021/06/19 08:56:23;;;;;;;;;;;;;;;;;;5036703;28;20023;-73
2021/06/19 08:58:49;;;;;;;;;;;;;;;;;;5030773;28;19921;-74
2021/06/19 09:01:15;;;;;;;;;;;;;;;;;;5038360;28;19928;-73
2021/06/19 09:03:41;;;;;;;;;;;;;;;;;;5045567;28;20019;-73
2021/06/19 09:06:07;;;;;;;;;;;;;;;;;;5040885;28;20015;-73
2021/06/19 09:08:33;;;;;;;;;;;;;;;;;;5037112;28;20027;-73
2021/06/19 09:11:00;;;;;;;;;;;;;;;;;;5041225;28;20022;-73
2021/06/19 09:13:26;;;;;;;;;;;;;;;;;;5044866;28;19921;-73
2021/06/19 09:15:54;;;;;;;;;;;;;;;;;;5041937;28;20903;-73
2021/06/19 09:18:20;;;;;;;;;;;;;;;;;;5045808;28;20011;-73
2021/06/19 09:20:49;;;;;;;;;;;;;;;;;;5039419;28;19935;-73
2021/06/19 09:23:15;;;;;;;;;;;;;;;;;;5039535;28;19928;-73
2021/06/19 09:25:42;;;;;;;;;;;;;;;;;;5043439;28;19924;-73
2021/06/19 09:28:08;;;;;;;;;;;;;;;;;;5042484;28;19992;-73
2021/06/19 09:30:34;;;;;;;;;;;;;;;;;;5041702;28;19925;-73
2021/06/19 09:33:00;;;;;;;;;;;;;;;;;;5040832;28;19951;-73
2021/06/19 09:35:27;;;;;;;;;;;;;;;;;;5034690;28;19990;-73
2021/06/19 09:37:53;;;;;;;;;;;;;;;;;;5046057;28;20019;-73
2021/06/19 09:40:19;;;;;;;;;;;;;;;;;;5046191;28;19921;-74
2021/06/19 09:42:45;;;;;;;;;;;;;;;;;;5041221;28;20395;-73
2021/06/19 09:45:12;;;;;;;;;;;;;;;;;;5038027;28;19920;-73
2021/06/19 09:47:38;;;;;;;;;;;;;;;;;;5038382;28;19921;-73
2021/06/19 09:50:05;;;;;;;;;;;;;;;;;;5048858;28;19921;-73
2021/06/19 09:52:31;;;;;;;;;;;;;;;;;;5038797;28;19920;-73
2021/06/19 09:54:57;;;;;;;;;;;;;;;;;;5046010;28;19924;-73
2021/06/19 09:57:23;;;;;;;;;;;;;;;;;;5043934;28;19944;-73
2021/06/19 09:59:49;;;;;;;;;;;;;;;;;;5040093;28;19921;-73
2021/06/19 10:02:15;;;;;;;;;;;;;;;;;;5043209;28;19996;-73
2021/06/19 10:04:42;;;;;;;;;;;;;;;;;;5036316;28;20023;-73
2021/06/19 10:07:08;;;;;;;;;;;;;;;;;;5038620;28;20067;-73
2021/06/19 10:09:35;;;;;;;;;;;;;;;;;;5046878;28;20059;-74
2021/06/19 10:12:01;;;;;;;;;;;;;;;;;;5038209;28;19928;-74
2021/06/19 10:14:27;;;;;;;;;;;;;;;;;;5041761;28;19921;-74
2021/06/19 10:16:53;;;;;;;;;;;;;;;;;;5028320;28;19971;-73
2021/06/19 10:19:21;;;;;;;;;;;;;;;;;;5039810;28;19969;-73
2021/06/19 10:21:49;;;;;;;;;;;;;;;;;;5019879;28;19932;-73
2021/06/19 10:24:15;;;;;;;;;;;;;;;;;;5038933;28;20313;-74
2021/06/19 10:26:42;;;;;;;;;;;;;;;;;;5035787;28;19917;-76
2021/06/19 10:29:08;;;;;;;;;;;;;;;;;;5035786;28;19921;-74
2021/06/19 10:31:34;;;;;;;;;;;;;;;;;;5043064;28;20293;-73
2021/06/19 10:34:00;;;;;;;;;;;;;;;;;;5040756;28;20316;-75
2021/06/19 10:36:26;;;;;;;;;;;;;;;;;;5047470;28;19943;-75
2021/06/19 10:38:52;;;;;;;;;;;;;;;;;;5039728;28;19924;-75
2021/06/19 10:41:19;;;;;;;;;;;;;;;;;;5042639;28;20046;-88
2021/06/19 10:43:45;;;;;;;;;;;;;;;;;;5043396;28;19940;-75
2021/06/19 10:46:12;;;;;;;;;;;;;;;;;;5040222;28;20319;-78
2021/06/19 10:48:38;;;;;;;;;;;;;;;;;;5038755;28;19975;-78
2021/06/19 10:51:04;;;;;;;;;;;;;;;;;;5046277;28;19921;-78
2021/06/19 10:53:30;;;;;;;;;;;;;;;;;;5043646;28;20273;-78
2021/06/19 10:55:57;;;;;;;;;;;;;;;;;;5045324;28;19921;-70
2021/06/19 10:58:23;;;;;;;;;;;;;;;;;;5046336;28;19925;-70
2021/06/19 11:00:50;;;;;;;;;;;;;;;;;;5046504;28;19952;-70
2021/06/19 11:03:17;;;;;;;;;;;;;;;;;;5043914;28;20016;-69
2021/06/19 11:05:43;;;;;;;;;;;;;;;;;;5041446;28;19947;-69
2021/06/19 11:08:09;;;;;;;;;;;;;;;;;;5046115;28;19920;-68
2021/06/19 11:10:35;;;;;;;;;;;;;;;;;;5048401;28;19969;-69
2021/06/19 11:13:02;;;;;;;;;;;;;;;;;;5040458;28;19933;-69
2021/06/19 11:15:28;;;;;;;;;;;;;;;;;;5042042;28;19925;-69
2021/06/19 11:17:54;;;;;;;;;;;;;;;;;;5041461;28;19992;-69
2021/06/19 11:20:20;;;;;;;;;;;;;;;;;;5051144;28;19933;-69
2021/06/19 11:22:47;;;;;;;;;;;;;;;;;;5046694;28;19920;-70
2021/06/19 11:25:14;;;;;;;;;;;;;;;;;;5036658;28;20015;-69
2021/06/19 11:27:40;;;;;;;;;;;;;;;;;;5048877;28;20376;-69
2021/06/19 11:30:06;;;;;;;;;;;;;;;;;;5046057;28;20119;-68
2021/06/19 11:32:32;;;;;;;;;;;;;;;;;;5044807;28;19932;-68
2021/06/19 11:34:59;;;;;;;;;;;;;;;;;;5050218;28;19940;-68
2021/06/19 11:37:25;;;;;;;;;;;;;;;;;;5038714;28;19921;-69
2021/06/19 11:39:51;;;;;;;;;;;;;;;;;;5040628;28;19921;-69
2021/06/19 11:42:17;;;;;;;;;;;;;;;;;;5041436;28;19931;-69
2021/06/19 11:44:43;;;;;;;;;;;;;;;;;;5029589;28;19921;-69
2021/06/19 11:47:10;;;;;;;;;;;;;;;;;;5047491;28;19920;-69
2021/06/19 11:49:36;;;;;;;;;;;;;;;;;;5055326;28;20367;-70
2021/06/19 11:52:02;;;;;;;;;;;;;;;;;;5050660;28;19932;-69
2021/06/19 11:54:28;;;;;;;;;;;;;;;;;;5046480;28;20418;-69
2021/06/19 11:56:55;;;;;;;;;;;;;;;;;;5050165;28;19940;-69
2021/06/19 11:59:21;;;;;;;;;;;;;;;;;;5047717;28;20563;-68
2021/06/19 12:01:48;;;;;;;;;;;;;;;;;;5050630;28;19943;-68
2021/06/19 12:04:14;;;;;;;;;;;;;;;;;;5050015;28;19921;-69
2021/06/19 12:06:40;;;;;;;;;;;;;;;;;;5050609;28;20360;-68
2021/06/19 12:09:07;;;;;;;;;;;;;;;;;;5045210;28;19925;-69
2021/06/19 12:11:33;;;;;;;;;;;;;;;;;;5029322;28;19928;-69
2021/06/19 12:13:59;;;;;;;;;;;;;;;;;;5035103;28;20040;-69
2021/06/19 12:16:25;;;;;;;;;;;;;;;;;;5042414;28;19960;-69
2021/06/19 12:18:51;;;;;;;;;;;;;;;;;;5033962;28;20300;-69
2021/06/19 12:21:17;;;;;;;;;;;;;;;;;;5041367;28;19932;-69
2021/06/19 12:23:43;;;;;;;;;;;;;;;;;;5041100;28;19967;-69
2021/06/19 12:26:09;;;;;;;;;;;;;;;;;;5037531;28;19975;-69
2021/06/19 12:28:36;;;;;;;;;;;;;;;;;;5032066;28;19928;-69
2021/06/19 12:31:02;;;;;;;;;;;;;;;;;;5039298;28;19924;-69
2021/06/19 12:33:28;;;;;;;;;;;;;;;;;;5042896;28;20011;-69
2021/06/19 12:35:54;;;;;;;;;;;;;;;;;;5042169;28;19924;-68
2021/06/19 12:38:21;;;;;;;;;;;;;;;;;;5036314;28;19958;-69
2021/06/19 12:40:47;;;;;;;;;;;;;;;;;;5040366;28;20011;-69
2021/06/19 12:43:14;;;;;;;;;;;;;;;;;;5045866;28;19921;-69
2021/06/19 12:45:43;;;;;;;;;;;;;;;;;;5041485;28;19925;-69
2021/06/19 12:48:10;;;;;;;;;;;;;;;;;;5046271;28;19921;-69
2021/06/19 12:50:36;;;;;;;;;;;;;;;;;;5045816;28;19920;-68
2021/06/19 12:53:02;;;;;;;;;;;;;;;;;;5047405;28;20066;-70
2021/06/19 12:55:28;;;;;;;;;;;;;;;;;;5047423;28;19964;-69
2021/06/19 12:57:55;;;;;;;;;;;;;;;;;;5046065;28;19997;-69
2021/06/19 13:00:21;;;;;;;;;;;;;;;;;;5039102;28;19944;-83
2021/06/19 13:02:47;;;;;;;;;;;;;;;;;;5044774;28;19937;-69
2021/06/19 13:05:13;;;;;;;;;;;;;;;;;;5051513;28;19933;-69
2021/06/19 13:07:39;;;;;;;;;;;;;;;;;;5040622;28;20339;-69
2021/06/19 13:10:05;;;;;;;;;;;;;;;;;;5041554;28;19978;-69
2021/06/19 13:12:31;;;;;;;;;;;;;;;;;;5036196;28;19925;-69
2021/06/19 13:14:58;;;;;;;;;;;;;;;;;;5041286;28;20016;-69
2021/06/19 13:17:24;;;;;;;;;;;;;;;;;;5042891;28;19924;-69
2021/06/19 13:19:50;;;;;;;;;;;;;;;;;;5039593;28;20308;-69
2021/06/19 13:22:16;;;;;;;;;;;;;;;;;;5035528;28;19928;-69
2021/06/19 13:24:42;;;;;;;;;;;;;;;;;;5040264;28;19921;-69
2021/06/19 13:27:08;;;;;;;;;;;;;;;;;;5051098;28;19920;-69
2021/06/19 13:29:35;;;;;;;;;;;;;;;;;;5045802;28;20296;-69
2021/06/19 13:32:01;;;;;;;;;;;;;;;;;;5045932;28;19921;-69
2021/06/19 13:34:27;;;;;;;;;;;;;;;;;;5043268;28;20371;-69
2021/06/19 13:36:53;;;;;;;;;;;;;;;;;;5047199;28;19939;-69
2021/06/19 13:39:20;;;;;;;;;;;;;;;;;;5046437;28;19921;-69
2021/06/19 13:41:47;;;;;;;;;;;;;;;;;;5042690;28;20308;-69
2021/06/19 13:44:13;;;;;;;;;;;;;;;;;;5048648;28;19924;-69
2021/06/19 13:46:39;;;;;;;;;;;;;;;;;;5043441;28;19920;-69
2021/06/19 13:49:06;;;;;;;;;;;;;;;;;;5041950;28;19987;-70
2021/06/19 13:51:32;;;;;;;;;;;;;;;;;;5041418;28;20023;-69
2021/06/19 13:53:59;;;;;;;;;;;;;;;;;;5044851;28;19925;-69
2021/06/19 13:56:25;;;;;;;;;;;;;;;;;;5041015;28;20025;-70
2021/06/19 13:58:51;;;;;;;;;;;;;;;;;;5021475;28;19924;-72
2021/06/19 14:01:17;;;;;;;;;;;;;;;;;;5044478;28;20000;-72
2021/06/19 14:03:44;;;;;;;;;;;;;;;;;;5043541;28;19960;-72
2021/06/19 14:06:12;;;;;;;;;;;;;;;;;;5033831;28;20019;-72
2021/06/19 14:08:38;;;;;;;;;;;;;;;;;;5043425;28;19928;-72
2021/06/19 14:11:04;;;;;;;;;;;;;;;;;;5043894;28;19917;-72
2021/06/19 14:13:30;;;;;;;;;;;;;;;;;;5042473;28;19924;-70
2021/06/19 14:15:56;;;;;;;;;;;;;;;;;;5038133;28;19920;-73
2021/06/19 14:18:22;;;;;;;;;;;;;;;;;;5036047;28;19917;-70
2021/06/19 14:20:49;;;;;;;;;;;;;;;;;;5040340;28;19921;-70
2021/06/19 14:23:15;;;;;;;;;;;;;;;;;;5039951;28;20317;-70
2021/06/19 14:25:41;;;;;;;;;;;;;;;;;;5038935;28;19932;-70
2021/06/19 14:28:08;;;;;;;;;;;;;;;;;;5029714;28;19951;-70
2021/06/19 14:30:34;;;;;;;;;;;;;;;;;;5037629;28;19921;-70
2021/06/19 14:33:00;;;;;;;;;;;;;;;;;;5047747;28;19936;-70
2021/06/19 14:35:26;;;;;;;;;;;;;;;;;;5034776;28;20046;-70
2021/06/19 14:37:53;;;;;;;;;;;;;;;;;;5041563;28;19964;-70
2021/06/19 14:40:19;;;;;;;;;;;;;;;;;;5037932;28;19941;-70
2021/06/19 14:42:45;;;;;;;;;;;;;;;;;;5047001;28;19963;-70
2021/06/19 14:45:12;;;;;;;;;;;;;;;;;;5043726;28;20351;-70
2021/06/19 14:47:40;;;;;;;;;;;;;;;;;;5044326;28;19928;-70
2021/06/19 14:50:07;;;;;;;;;;;;;;;;;;5039053;28;20039;-70
2021/06/19 14:52:35;;;;;;;;;;;;;;;;;;5040807;28;19975;-70
2021/06/19 14:55:01;;;;;;;;;;;;;;;;;;5047804;28;19928;-71
2021/06/19 14:57:27;;;;;;;;;;;;;;;;;;5043777;28;19966;-70
2021/06/19 14:59:53;;;;;;;;;;;;;;;;;;5043492;28;19978;-70
2021/06/19 15:02:20;;;;;;;;;;;;;;;;;;5034508;28;19921;-70
2021/06/19 15:04:46;;;;;;;;;;;;;;;;;;5046869;28;19928;-70
2021/06/19 15:07:12;;;;;;;;;;;;;;;;;;5037410;28;19924;-70
2021/06/19 15:09:38;;;;;;;;;;;;;;;;;;5037582;28;19964;-70
2021/06/19 15:12:04;;;;;;;;;;;;;;;;;;5033507;28;19927;-70
2021/06/19 15:14:31;;;;;;;;;;;;;;;;;;5033063;28;20302;-70
2021/06/19 15:16:57;;;;;;;;;;;;;;;;;;5033178;28;19969;-70
2021/06/19 15:19:23;;;;;;;;;;;;;;;;;;5037810;28;19920;-70
2021/06/19 15:21:49;;;;;;;;;;;;;;;;;;5017857;28;20399;-72
2021/06/19 15:24:15;;;;;;;;;;;;;;;;;;5045510;28;19921;-73
2021/06/19 15:26:41;;;;;;;;;;;;;;;;;;5032512;28;19937;-73
2021/06/19 15:29:08;;;;;;;;;;;;;;;;;;5031522;28;19928;-73
2021/06/19 15:31:36;;;;;;;;;;;;;;;;;;5034599;28;19943;-73
2021/06/19 15:34:02;;;;;;;;;;;;;;;;;;5034157;28;19925;-73
2021/06/19 15:36:28;;;;;;;;;;;;;;;;;;5029756;28;19924;-73
2021/06/19 15:38:54;;;;;;;;;;;;;;;;;;5034029;28;20318;-73
2021/06/19 15:41:20;;;;;;;;;;;;;;;;;;5043492;28;19920;-73
2021/06/19 15:43:46;;;;;;;;;;;;;;;;;;5041682;28;20011;-73
2021/06/19 15:46:13;;;;;;;;;;;;;;;;;;5032758;28;19933;-73
2021/06/19 15:48:39;;;;;;;;;;;;;;;;;;5044687;28;19927;-73
2021/06/19 15:51:06;;;;;;;;;;;;;;;;;;5043284;28;20114;-73
2021/06/19 15:53:32;;;;;;;;;;;;;;;;;;5044297;28;19925;-73
2021/06/19 15:55:58;;;;;;;;;;;;;;;;;;5047032;28;19920;-70
2021/06/19 15:58:25;;;;;;;;;;;;;;;;;;5042232;28;19931;-70
2021/06/19 16:00:51;;;;;;;;;;;;;;;;;;5027092;28;20015;-70
2021/06/19 16:03:18;;;;;;;;;;;;;;;;;;5039666;28;20314;-70
2021/06/19 16:05:44;;;;;;;;;;;;;;;;;;5044405;28;19920;-71
2021/06/19 16:08:10;;;;;;;;;;;;;;;;;;5050994;28;20007;-71
2021/06/19 16:10:36;;;;;;;;;;;;;;;;;;5044088;28;19917;-71
2021/06/19 16:13:02;;;;;;;;;;;;;;;;;;5050395;28;19950;-71
2021/06/19 16:15:28;;;;;;;;;;;;;;;;;;5029430;28;19921;-71
2021/06/19 16:17:54;;;;;;;;;;;;;;;;;;5038047;28;20266;-72
2021/06/19 16:20:21;;;;;;;;;;;;;;;;;;5048787;28;20360;-72
2021/06/19 16:22:47;;;;;;;;;;;;;;;;;;5041300;28;19931;-71
2021/06/19 16:25:13;;;;;;;;;;;;;;;;;;5042092;28;19966;-71
2021/06/19 16:27:40;;;;;;;;;;;;;;;;;;5039934;28;19921;-71
2021/06/19 16:30:06;;;;;;;;;;;;;;;;;;5037160;28;19992;-70
2021/06/19 16:32:32;;;;;;;;;;;;;;;;;;5046341;28;20006;-70
2021/06/19 16:34:58;;;;;;;;;;;;;;;;;;5044751;28;20020;-70
2021/06/19 16:37:24;;;;;;;;;;;;;;;;;;5042799;28;19969;-70
2021/06/19 16:39:50;;;;;;;;;;;;;;;;;;5045109;28;20021;-71
2021/06/19 16:42:16;;;;;;;;;;;;;;;;;;5040188;28;19920;-70